AFR7300 LFPG-LFMN
Flight info
| Callsign | AFR7300 |
|---|---|
| Flight time | 1h 12m |
| Altitude | 41000 |
| Route | LATRA DCT LAMUT DCT UTUVA DCT LERGA DCT LIQID DCT LATAM DCT TUNUR DCT NISAR |
| Aircraft | A359/H-SDE2E3GHIJ3J4J5LM1ORWXY/LB1D1 |
Departure
| Time | 2026-05-06 14:39 |
|---|---|
| Airport | Charles de Gaulle International Airport (LFPG) |
Arrival
| Time | 2026-05-06 15:52 |
|---|---|
| Airport | Nice-Côte d'Azur Airport (LFMN) |
| Time | Latitude | Longitude | Altitude | Speed | Heading |
|---|---|---|---|---|---|
| 2026-05-06 14:00 | 49.00156 | 2.58017 | 361 ft | 0 kts | 355° |
| 2026-05-06 14:30 | 49.00140 | 2.58019 | 365 ft | 4 kts | 354° |
| 2026-05-06 14:30 | 49.00113 | 2.58023 | 363 ft | 4 kts | 355° |
| 2026-05-06 14:30 | 49.00092 | 2.58026 | 364 ft | 4 kts | 0° |
| 2026-05-06 14:30 | 49.00080 | 2.58031 | 369 ft | 3 kts | 73° |
| 2026-05-06 14:31 | 49.00074 | 2.57994 | 368 ft | 4 kts | 85° |
| 2026-05-06 14:31 | 49.00073 | 2.57953 | 367 ft | 4 kts | 89° |
| 2026-05-06 14:31 | 49.00073 | 2.57939 | 360 ft | 0 kts | 85° |
| 2026-05-06 14:34 | 49.00074 | 2.57949 | 367 ft | 5 kts | 85° |
| 2026-05-06 14:34 | 49.00079 | 2.58045 | 369 ft | 11 kts | 85° |
| 2026-05-06 14:34 | 49.00086 | 2.58161 | 366 ft | 10 kts | 85° |
| 2026-05-06 14:34 | 49.00089 | 2.58270 | 367 ft | 9 kts | 98° |
| 2026-05-06 14:35 | 49.00041 | 2.58324 | 365 ft | 10 kts | 172° |
| 2026-05-06 14:35 | 49.00016 | 2.58403 | 368 ft | 10 kts | 83° |
| 2026-05-06 14:35 | 49.00022 | 2.58523 | 362 ft | 13 kts | 85° |
| 2026-05-06 14:35 | 49.00030 | 2.58674 | 360 ft | 16 kts | 84° |
| 2026-05-06 14:36 | 49.00037 | 2.58852 | 362 ft | 18 kts | 87° |
| 2026-05-06 14:36 | 49.00050 | 2.59058 | 366 ft | 20 kts | 83° |
| 2026-05-06 14:36 | 49.00065 | 2.59282 | 365 ft | 22 kts | 86° |
| 2026-05-06 14:36 | 49.00078 | 2.59533 | 363 ft | 25 kts | 85° |
| 2026-05-06 14:37 | 49.00089 | 2.59790 | 367 ft | 24 kts | 87° |
| 2026-05-06 14:37 | 49.00101 | 2.60013 | 369 ft | 21 kts | 84° |
| 2026-05-06 14:37 | 49.00115 | 2.60241 | 364 ft | 17 kts | 84° |
| 2026-05-06 14:37 | 49.00115 | 2.60369 | 366 ft | 10 kts | 112° |
| 2026-05-06 14:38 | 49.00051 | 2.60401 | 362 ft | 12 kts | 176° |
| 2026-05-06 14:38 | 48.99957 | 2.60400 | 364 ft | 15 kts | 182° |
| 2026-05-06 14:38 | 48.99870 | 2.60354 | 368 ft | 13 kts | 218° |
| 2026-05-06 14:38 | 48.99833 | 2.60225 | 359 ft | 15 kts | 264° |
| 2026-05-06 14:39 | 48.99817 | 2.59951 | 361 ft | 53 kts | 266° |
| 2026-05-06 14:39 | 48.99767 | 2.59015 | 362 ft | 122 kts | 265° |
| 2026-05-06 14:39 | 48.99680 | 2.57432 | 428 ft | 172 kts | 268° |
| 2026-05-06 14:39 | 48.99574 | 2.55719 | 1314 ft | 164 kts | 267° |
| 2026-05-06 14:40 | 48.99471 | 2.53902 | 1834 ft | 183 kts | 268° |
| 2026-05-06 14:40 | 48.99338 | 2.51826 | 2177 ft | 213 kts | 266° |
| 2026-05-06 14:40 | 48.99214 | 2.49432 | 2594 ft | 238 kts | 268° |
| 2026-05-06 14:40 | 48.99092 | 2.46831 | 3390 ft | 248 kts | 268° |
| 2026-05-06 14:41 | 48.98964 | 2.44203 | 4242 ft | 253 kts | 268° |
| 2026-05-06 14:41 | 48.98820 | 2.41484 | 5081 ft | 259 kts | 268° |
| 2026-05-06 14:41 | 48.98670 | 2.38752 | 5932 ft | 264 kts | 268° |
| 2026-05-06 14:41 | 48.98512 | 2.35910 | 6810 ft | 269 kts | 268° |
| 2026-05-06 14:42 | 48.98356 | 2.33077 | 7704 ft | 272 kts | 268° |
| 2026-05-06 14:42 | 48.98252 | 2.31152 | 8393 ft | 273 kts | 267° |
| 2026-05-06 14:42 | 48.98036 | 2.27292 | 9774 ft | 275 kts | 266° |
| 2026-05-06 14:42 | 48.97868 | 2.24321 | 10490 ft | 289 kts | 266° |
| 2026-05-06 14:43 | 48.97690 | 2.21178 | 10969 ft | 307 kts | 266° |
| 2026-05-06 14:43 | 48.97503 | 2.17898 | 11697 ft | 317 kts | 266° |
| 2026-05-06 14:43 | 48.97303 | 2.14511 | 12468 ft | 325 kts | 265° |
| 2026-05-06 14:43 | 48.96805 | 2.11128 | 13322 ft | 332 kts | 249° |
| 2026-05-06 14:44 | 48.96075 | 2.09061 | 13878 ft | 336 kts | 235° |
| 2026-05-06 14:44 | 48.94393 | 2.06600 | 14643 ft | 342 kts | 213° |
| 2026-05-06 14:44 | 48.92163 | 2.05220 | 15430 ft | 347 kts | 192° |
| 2026-05-06 14:45 | 48.87464 | 2.06563 | 17016 ft | 357 kts | 150° |
| 2026-05-06 14:45 | 48.85236 | 2.08187 | 17814 ft | 360 kts | 164° |
| 2026-05-06 14:45 | 48.82775 | 2.08944 | 18601 ft | 361 kts | 173° |
| 2026-05-06 14:45 | 48.80281 | 2.09407 | 19283 ft | 366 kts | 174° |
| 2026-05-06 14:46 | 48.77708 | 2.09846 | 19958 ft | 371 kts | 174° |
| 2026-05-06 14:46 | 48.75138 | 2.10285 | 20633 ft | 375 kts | 174° |
| 2026-05-06 14:46 | 48.72545 | 2.10731 | 21308 ft | 380 kts | 174° |
| 2026-05-06 14:46 | 48.69873 | 2.11220 | 21996 ft | 384 kts | 172° |
| 2026-05-06 14:47 | 48.67283 | 2.12132 | 22639 ft | 389 kts | 161° |
| 2026-05-06 14:47 | 48.64792 | 2.13733 | 23281 ft | 394 kts | 153° |
| 2026-05-06 14:47 | 48.62302 | 2.15614 | 23893 ft | 397 kts | 153° |
| 2026-05-06 14:47 | 48.59850 | 2.17488 | 24628 ft | 395 kts | 154° |
| 2026-05-06 14:48 | 48.57424 | 2.19331 | 25367 ft | 394 kts | 154° |
| 2026-05-06 14:48 | 48.54960 | 2.21194 | 25931 ft | 398 kts | 154° |
| 2026-05-06 14:48 | 48.52461 | 2.23076 | 26440 ft | 402 kts | 154° |
| 2026-05-06 14:48 | 48.49957 | 2.24960 | 27025 ft | 405 kts | 154° |
| 2026-05-06 14:49 | 48.47427 | 2.26859 | 27566 ft | 408 kts | 154° |
| 2026-05-06 14:49 | 48.44886 | 2.28762 | 28067 ft | 413 kts | 154° |
| 2026-05-06 14:49 | 48.42298 | 2.30699 | 28595 ft | 417 kts | 153° |
| 2026-05-06 14:49 | 48.39705 | 2.32637 | 29106 ft | 420 kts | 154° |
| 2026-05-06 14:50 | 48.37085 | 2.34593 | 29623 ft | 423 kts | 154° |
| 2026-05-06 14:50 | 48.34417 | 2.36582 | 30105 ft | 426 kts | 154° |
| 2026-05-06 14:50 | 48.31774 | 2.38551 | 30509 ft | 429 kts | 154° |
| 2026-05-06 14:50 | 48.29060 | 2.40523 | 30912 ft | 432 kts | 156° |
| 2026-05-06 14:51 | 48.26269 | 2.42164 | 31342 ft | 434 kts | 160° |
| 2026-05-06 14:51 | 48.23399 | 2.43698 | 31737 ft | 437 kts | 161° |
| 2026-05-06 14:51 | 48.20528 | 2.45215 | 32089 ft | 441 kts | 161° |
| 2026-05-06 14:51 | 48.17645 | 2.46739 | 32543 ft | 442 kts | 161° |
| 2026-05-06 14:52 | 48.14717 | 2.48287 | 32982 ft | 444 kts | 161° |
| 2026-05-06 14:52 | 48.11805 | 2.49827 | 33266 ft | 448 kts | 161° |
| 2026-05-06 14:52 | 48.08830 | 2.51400 | 33531 ft | 453 kts | 161° |
| 2026-05-06 14:52 | 48.05845 | 2.52965 | 33800 ft | 458 kts | 161° |
| 2026-05-06 14:53 | 48.02825 | 2.54479 | 33967 ft | 464 kts | 162° |
| 2026-05-06 14:53 | 47.99757 | 2.55975 | 34098 ft | 470 kts | 162° |
| 2026-05-06 14:53 | 47.96604 | 2.57499 | 34234 ft | 476 kts | 162° |
| 2026-05-06 14:53 | 47.93455 | 2.59022 | 34362 ft | 481 kts | 162° |
| 2026-05-06 14:54 | 47.90236 | 2.60587 | 34557 ft | 485 kts | 162° |
| 2026-05-06 14:54 | 47.87057 | 2.62138 | 34890 ft | 485 kts | 162° |
| 2026-05-06 14:54 | 47.83820 | 2.63724 | 35230 ft | 485 kts | 162° |
| 2026-05-06 14:54 | 47.80644 | 2.65283 | 35537 ft | 485 kts | 162° |
| 2026-05-06 14:55 | 47.77420 | 2.66859 | 35868 ft | 485 kts | 162° |
| 2026-05-06 14:55 | 47.74240 | 2.68412 | 36124 ft | 486 kts | 163° |
| 2026-05-06 14:55 | 47.71018 | 2.69987 | 36410 ft | 486 kts | 163° |
| 2026-05-06 14:55 | 47.67820 | 2.71548 | 36712 ft | 486 kts | 163° |
| 2026-05-06 14:56 | 47.64588 | 2.73123 | 37007 ft | 486 kts | 163° |
| 2026-05-06 14:56 | 47.61384 | 2.74681 | 37303 ft | 486 kts | 163° |
| 2026-05-06 14:56 | 47.58191 | 2.76231 | 37567 ft | 486 kts | 163° |
| 2026-05-06 14:56 | 47.54943 | 2.77807 | 37833 ft | 486 kts | 163° |
| 2026-05-06 14:57 | 47.51742 | 2.79360 | 38082 ft | 487 kts | 163° |
| 2026-05-06 14:57 | 47.48536 | 2.80912 | 38331 ft | 487 kts | 163° |
| 2026-05-06 14:57 | 47.45328 | 2.82466 | 38583 ft | 487 kts | 163° |
| 2026-05-06 14:57 | 47.42088 | 2.84042 | 38796 ft | 487 kts | 162° |
| 2026-05-06 14:58 | 47.38866 | 2.85609 | 38985 ft | 487 kts | 163° |
| 2026-05-06 14:58 | 47.35647 | 2.87162 | 39176 ft | 487 kts | 163° |
| 2026-05-06 14:58 | 47.32423 | 2.88703 | 39379 ft | 486 kts | 163° |
| 2026-05-06 14:58 | 47.29206 | 2.90234 | 39565 ft | 486 kts | 163° |
| 2026-05-06 14:59 | 47.25994 | 2.91764 | 39804 ft | 485 kts | 163° |
| 2026-05-06 14:59 | 47.22786 | 2.93292 | 40031 ft | 484 kts | 164° |
| 2026-05-06 14:59 | 47.19615 | 2.94800 | 40195 ft | 484 kts | 163° |
| 2026-05-06 14:59 | 47.16412 | 2.96324 | 40368 ft | 484 kts | 164° |
| 2026-05-06 15:00 | 47.13205 | 2.97842 | 40521 ft | 484 kts | 164° |
| 2026-05-06 15:00 | 47.09996 | 2.99347 | 40696 ft | 484 kts | 165° |
| 2026-05-06 15:00 | 47.06771 | 3.00737 | 40844 ft | 484 kts | 166° |
| 2026-05-06 15:01 | 47.00272 | 3.03347 | 40914 ft | 484 kts | 167° |
| 2026-05-06 15:01 | 46.93770 | 3.05937 | 40910 ft | 484 kts | 167° |
| 2026-05-06 15:02 | 46.87314 | 3.08552 | 40908 ft | 484 kts | 166° |
| 2026-05-06 15:02 | 46.80778 | 3.11220 | 40902 ft | 484 kts | 166° |
| 2026-05-06 15:03 | 46.74280 | 3.13873 | 40895 ft | 484 kts | 166° |
| 2026-05-06 15:03 | 46.67835 | 3.16497 | 40888 ft | 484 kts | 166° |
| 2026-05-06 15:04 | 46.61340 | 3.19133 | 40886 ft | 484 kts | 166° |
| 2026-05-06 15:04 | 46.54842 | 3.21763 | 40886 ft | 484 kts | 167° |
| 2026-05-06 15:05 | 46.48347 | 3.24394 | 40885 ft | 484 kts | 166° |
| 2026-05-06 15:05 | 46.41863 | 3.27029 | 40886 ft | 484 kts | 166° |
| 2026-05-06 15:06 | 46.35375 | 3.29648 | 40883 ft | 483 kts | 167° |
| 2026-05-06 15:06 | 46.28926 | 3.32225 | 40883 ft | 483 kts | 167° |
| 2026-05-06 15:07 | 46.22435 | 3.34806 | 40910 ft | 483 kts | 167° |
| 2026-05-06 15:07 | 46.15950 | 3.37379 | 40911 ft | 484 kts | 167° |
| 2026-05-06 15:08 | 46.09471 | 3.39960 | 40910 ft | 484 kts | 167° |
| 2026-05-06 15:08 | 46.02976 | 3.42548 | 40906 ft | 484 kts | 167° |
| 2026-05-06 15:09 | 45.96485 | 3.45137 | 40898 ft | 484 kts | 167° |
| 2026-05-06 15:09 | 45.89992 | 3.47715 | 40889 ft | 484 kts | 167° |
| 2026-05-06 15:10 | 45.83500 | 3.50299 | 40888 ft | 484 kts | 166° |
| 2026-05-06 15:10 | 45.77037 | 3.53085 | 40885 ft | 485 kts | 165° |
| 2026-05-06 15:11 | 45.70588 | 3.55922 | 40885 ft | 485 kts | 165° |
| 2026-05-06 15:11 | 45.64125 | 3.58699 | 40893 ft | 485 kts | 166° |
| 2026-05-06 15:12 | 45.57700 | 3.61427 | 40893 ft | 485 kts | 166° |
| 2026-05-06 15:12 | 45.51239 | 3.64178 | 40888 ft | 485 kts | 166° |
| 2026-05-06 15:13 | 45.44771 | 3.66934 | 40892 ft | 485 kts | 166° |
| 2026-05-06 15:13 | 45.38306 | 3.69684 | 40895 ft | 485 kts | 166° |
| 2026-05-06 15:14 | 45.31863 | 3.72551 | 40882 ft | 486 kts | 161° |
| 2026-05-06 15:14 | 45.25944 | 3.77292 | 40904 ft | 494 kts | 144° |
| 2026-05-06 15:15 | 45.21316 | 3.84557 | 40909 ft | 501 kts | 128° |
| 2026-05-06 15:15 | 45.17474 | 3.92833 | 40907 ft | 504 kts | 125° |
| 2026-05-06 15:16 | 45.13729 | 4.01240 | 40907 ft | 504 kts | 125° |
| 2026-05-06 15:16 | 45.09985 | 4.09548 | 40902 ft | 504 kts | 126° |
| 2026-05-06 15:17 | 45.06173 | 4.17873 | 40906 ft | 504 kts | 126° |
| 2026-05-06 15:17 | 45.02060 | 4.25848 | 40908 ft | 500 kts | 134° |
| 2026-05-06 15:18 | 44.97440 | 4.33179 | 40911 ft | 499 kts | 136° |
| 2026-05-06 15:18 | 44.93061 | 4.39877 | 40900 ft | 499 kts | 136° |
| 2026-05-06 15:19 | 44.88350 | 4.47064 | 40909 ft | 499 kts | 136° |
| 2026-05-06 15:19 | 44.83663 | 4.54195 | 40911 ft | 499 kts | 136° |
| 2026-05-06 15:20 | 44.78946 | 4.61372 | 40915 ft | 498 kts | 136° |
| 2026-05-06 15:20 | 44.74636 | 4.67925 | 40909 ft | 497 kts | 136° |
| 2026-05-06 15:20 | 44.72286 | 4.71492 | 40712 ft | 497 kts | 136° |
| 2026-05-06 15:21 | 44.69934 | 4.75059 | 40444 ft | 496 kts | 136° |
| 2026-05-06 15:21 | 44.67591 | 4.78609 | 39791 ft | 496 kts | 137° |
| 2026-05-06 15:21 | 44.65234 | 4.82173 | 39062 ft | 498 kts | 137° |
| 2026-05-06 15:21 | 44.62876 | 4.85748 | 38343 ft | 501 kts | 136° |
| 2026-05-06 15:22 | 44.60562 | 4.89431 | 37506 ft | 503 kts | 135° |
| 2026-05-06 15:22 | 44.58273 | 4.93131 | 36773 ft | 501 kts | 135° |
| 2026-05-06 15:22 | 44.56014 | 4.96767 | 36065 ft | 500 kts | 136° |
| 2026-05-06 15:22 | 44.53725 | 5.00432 | 35364 ft | 499 kts | 136° |
| 2026-05-06 15:23 | 44.51431 | 5.04094 | 34602 ft | 499 kts | 137° |
| 2026-05-06 15:23 | 44.49131 | 5.07756 | 33764 ft | 501 kts | 137° |
| 2026-05-06 15:23 | 44.46829 | 5.11422 | 33222 ft | 500 kts | 137° |
| 2026-05-06 15:23 | 44.44523 | 5.15079 | 32681 ft | 502 kts | 138° |
| 2026-05-06 15:24 | 44.42203 | 5.18754 | 32178 ft | 504 kts | 138° |
| 2026-05-06 15:24 | 44.39908 | 5.22385 | 31638 ft | 505 kts | 138° |
| 2026-05-06 15:24 | 44.37537 | 5.25984 | 31117 ft | 501 kts | 142° |
| 2026-05-06 15:24 | 44.34916 | 5.29160 | 30565 ft | 496 kts | 148° |
| 2026-05-06 15:25 | 44.32204 | 5.32137 | 30042 ft | 496 kts | 149° |
| 2026-05-06 15:25 | 44.29477 | 5.35094 | 29390 ft | 496 kts | 149° |
| 2026-05-06 15:25 | 44.26770 | 5.38033 | 28913 ft | 491 kts | 149° |
| 2026-05-06 15:25 | 44.24080 | 5.40956 | 28396 ft | 487 kts | 149° |
| 2026-05-06 15:26 | 44.21411 | 5.43851 | 27877 ft | 484 kts | 149° |
| 2026-05-06 15:26 | 44.18757 | 5.46730 | 27366 ft | 481 kts | 149° |
| 2026-05-06 15:26 | 44.16155 | 5.49550 | 26851 ft | 478 kts | 148° |
| 2026-05-06 15:26 | 44.13506 | 5.52421 | 26350 ft | 476 kts | 148° |
| 2026-05-06 15:27 | 44.10899 | 5.55241 | 25847 ft | 473 kts | 148° |
| 2026-05-06 15:27 | 44.08312 | 5.58039 | 25333 ft | 470 kts | 148° |
| 2026-05-06 15:27 | 44.05775 | 5.60784 | 24856 ft | 466 kts | 148° |
| 2026-05-06 15:27 | 44.03224 | 5.63540 | 24351 ft | 462 kts | 148° |
| 2026-05-06 15:28 | 44.00693 | 5.66265 | 23865 ft | 459 kts | 148° |
| 2026-05-06 15:28 | 43.98177 | 5.68973 | 23357 ft | 457 kts | 148° |
| 2026-05-06 15:28 | 43.95668 | 5.71669 | 22807 ft | 454 kts | 149° |
| 2026-05-06 15:28 | 43.93180 | 5.74341 | 22346 ft | 451 kts | 149° |
| 2026-05-06 15:29 | 43.90705 | 5.76998 | 21869 ft | 448 kts | 148° |
| 2026-05-06 15:29 | 43.88252 | 5.79627 | 21389 ft | 445 kts | 148° |
| 2026-05-06 15:29 | 43.85806 | 5.82243 | 20917 ft | 442 kts | 148° |
| 2026-05-06 15:29 | 43.83370 | 5.84839 | 20454 ft | 440 kts | 148° |
| 2026-05-06 15:30 | 43.80949 | 5.87421 | 19976 ft | 438 kts | 147° |
| 2026-05-06 15:30 | 43.78541 | 5.89990 | 19521 ft | 436 kts | 147° |
| 2026-05-06 15:30 | 43.76142 | 5.92551 | 19076 ft | 435 kts | 147° |
| 2026-05-06 15:30 | 43.73748 | 5.95098 | 18591 ft | 433 kts | 146° |
| 2026-05-06 15:31 | 43.71361 | 5.97630 | 18131 ft | 431 kts | 146° |
| 2026-05-06 15:31 | 43.68982 | 6.00154 | 17630 ft | 429 kts | 146° |
| 2026-05-06 15:31 | 43.67417 | 6.01814 | 17329 ft | 427 kts | 146° |
| 2026-05-06 15:32 | 43.62010 | 6.07552 | 16443 ft | 410 kts | 145° |
| 2026-05-06 15:32 | 43.60601 | 6.09264 | 16262 ft | 403 kts | 137° |
| 2026-05-06 15:32 | 43.59019 | 6.12326 | 15836 ft | 385 kts | 118° |
| 2026-05-06 15:32 | 43.58018 | 6.15657 | 15420 ft | 365 kts | 113° |
| 2026-05-06 15:33 | 43.57160 | 6.18843 | 15011 ft | 346 kts | 113° |
| 2026-05-06 15:33 | 43.56344 | 6.21866 | 14644 ft | 328 kts | 113° |
| 2026-05-06 15:33 | 43.55542 | 6.24798 | 14304 ft | 329 kts | 114° |
| 2026-05-06 15:33 | 43.54733 | 6.27735 | 14006 ft | 327 kts | 114° |
| 2026-05-06 15:34 | 43.53933 | 6.30647 | 13525 ft | 321 kts | 113° |
| 2026-05-06 15:34 | 43.53132 | 6.33547 | 13266 ft | 323 kts | 114° |
| 2026-05-06 15:34 | 43.52334 | 6.36431 | 12917 ft | 319 kts | 113° |
| 2026-05-06 15:34 | 43.51555 | 6.39243 | 12561 ft | 318 kts | 114° |
| 2026-05-06 15:35 | 43.50751 | 6.42073 | 12257 ft | 315 kts | 116° |
| 2026-05-06 15:35 | 43.49580 | 6.44613 | 11876 ft | 308 kts | 134° |
| 2026-05-06 15:35 | 43.48139 | 6.46774 | 11610 ft | 306 kts | 137° |
| 2026-05-06 15:35 | 43.46664 | 6.48883 | 11441 ft | 305 kts | 137° |
| 2026-05-06 15:36 | 43.45212 | 6.50959 | 11288 ft | 304 kts | 137° |
| 2026-05-06 15:36 | 43.43751 | 6.53049 | 11124 ft | 303 kts | 137° |
| 2026-05-06 15:36 | 43.42295 | 6.55139 | 10963 ft | 302 kts | 138° |
| 2026-05-06 15:36 | 43.40840 | 6.57231 | 10823 ft | 301 kts | 137° |
| 2026-05-06 15:37 | 43.39466 | 6.59416 | 10671 ft | 305 kts | 127° |
| 2026-05-06 15:37 | 43.38685 | 6.62124 | 10513 ft | 310 kts | 100° |
| 2026-05-06 15:37 | 43.38701 | 6.65103 | 10335 ft | 313 kts | 86° |
| 2026-05-06 15:37 | 43.38924 | 6.68087 | 10174 ft | 314 kts | 85° |
| 2026-05-06 15:38 | 43.39154 | 6.71064 | 10010 ft | 312 kts | 85° |
| 2026-05-06 15:38 | 43.39372 | 6.74028 | 9853 ft | 312 kts | 86° |
| 2026-05-06 15:38 | 43.39582 | 6.76997 | 9663 ft | 311 kts | 86° |
| 2026-05-06 15:38 | 43.39786 | 6.79954 | 9517 ft | 310 kts | 86° |
| 2026-05-06 15:39 | 43.39988 | 6.82903 | 9345 ft | 309 kts | 86° |
| 2026-05-06 15:39 | 43.40187 | 6.85843 | 9185 ft | 310 kts | 86° |
| 2026-05-06 15:39 | 43.40385 | 6.88806 | 9038 ft | 310 kts | 86° |
| 2026-05-06 15:39 | 43.40581 | 6.91759 | 8863 ft | 310 kts | 86° |
| 2026-05-06 15:40 | 43.40775 | 6.94685 | 8712 ft | 311 kts | 86° |
| 2026-05-06 15:40 | 43.40971 | 6.97639 | 8546 ft | 309 kts | 85° |
| 2026-05-06 15:40 | 43.41166 | 7.00572 | 8388 ft | 307 kts | 86° |
| 2026-05-06 15:40 | 43.41358 | 7.03501 | 8229 ft | 308 kts | 86° |
| 2026-05-06 15:41 | 43.41549 | 7.06430 | 8075 ft | 305 kts | 85° |
| 2026-05-06 15:41 | 43.41739 | 7.09318 | 7919 ft | 303 kts | 85° |
| 2026-05-06 15:41 | 43.42072 | 7.12186 | 7741 ft | 305 kts | 76° |
| 2026-05-06 15:41 | 43.42612 | 7.15000 | 7479 ft | 302 kts | 73° |
| 2026-05-06 15:42 | 43.43183 | 7.17770 | 7247 ft | 300 kts | 73° |
| 2026-05-06 15:42 | 43.43752 | 7.20534 | 7015 ft | 302 kts | 73° |
| 2026-05-06 15:42 | 43.44319 | 7.23302 | 6764 ft | 298 kts | 73° |
| 2026-05-06 15:42 | 43.44877 | 7.26035 | 6531 ft | 296 kts | 73° |
| 2026-05-06 15:43 | 43.45426 | 7.28767 | 6295 ft | 297 kts | 74° |
| 2026-05-06 15:43 | 43.45962 | 7.31466 | 6058 ft | 294 kts | 73° |
| 2026-05-06 15:43 | 43.46498 | 7.34162 | 5831 ft | 292 kts | 73° |
| 2026-05-06 15:43 | 43.47041 | 7.36877 | 5585 ft | 295 kts | 73° |
| 2026-05-06 15:44 | 43.47583 | 7.39586 | 5361 ft | 292 kts | 73° |
| 2026-05-06 15:44 | 43.48112 | 7.42245 | 5196 ft | 282 kts | 73° |
| 2026-05-06 15:44 | 43.48620 | 7.44806 | 5007 ft | 273 kts | 73° |
| 2026-05-06 15:44 | 43.49134 | 7.47263 | 4862 ft | 262 kts | 69° |
| 2026-05-06 15:45 | 43.50064 | 7.49307 | 4674 ft | 245 kts | 37° |
| 2026-05-06 15:45 | 43.51497 | 7.50331 | 4502 ft | 224 kts | 4° |
| 2026-05-06 15:45 | 43.52986 | 7.50343 | 4318 ft | 209 kts | 345° |
| 2026-05-06 15:45 | 43.54412 | 7.50011 | 4155 ft | 208 kts | 344° |
| 2026-05-06 15:46 | 43.55841 | 7.49644 | 3980 ft | 208 kts | 342° |
| 2026-05-06 15:46 | 43.57250 | 7.49223 | 3817 ft | 205 kts | 336° |
| 2026-05-06 15:46 | 43.58431 | 7.48255 | 3645 ft | 194 kts | 310° |
| 2026-05-06 15:46 | 43.59275 | 7.46801 | 3477 ft | 196 kts | 300° |
| 2026-05-06 15:47 | 43.60056 | 7.45246 | 3315 ft | 197 kts | 300° |
| 2026-05-06 15:47 | 43.60834 | 7.43691 | 3154 ft | 198 kts | 301° |
| 2026-05-06 15:47 | 43.61612 | 7.42148 | 2996 ft | 199 kts | 301° |
| 2026-05-06 15:47 | 43.62401 | 7.40594 | 2860 ft | 194 kts | 301° |
| 2026-05-06 15:48 | 43.63154 | 7.39117 | 2779 ft | 183 kts | 300° |
| 2026-05-06 15:48 | 43.63858 | 7.37746 | 2724 ft | 168 kts | 300° |
| 2026-05-06 15:48 | 43.64518 | 7.36454 | 2496 ft | 163 kts | 300° |
| 2026-05-06 15:48 | 43.65158 | 7.35193 | 2312 ft | 157 kts | 299° |
| 2026-05-06 15:49 | 43.65768 | 7.33992 | 2056 ft | 148 kts | 300° |
| 2026-05-06 15:49 | 43.66344 | 7.32872 | 1864 ft | 138 kts | 298° |
| 2026-05-06 15:49 | 43.66881 | 7.31821 | 1692 ft | 132 kts | 297° |
| 2026-05-06 15:49 | 43.67408 | 7.30777 | 1479 ft | 133 kts | 296° |
| 2026-05-06 15:50 | 43.67939 | 7.29721 | 1312 ft | 135 kts | 296° |
| 2026-05-06 15:50 | 43.68454 | 7.28639 | 1106 ft | 133 kts | 291° |
| 2026-05-06 15:50 | 43.68726 | 7.27454 | 938 ft | 127 kts | 270° |
| 2026-05-06 15:50 | 43.68654 | 7.26271 | 767 ft | 122 kts | 250° |
| 2026-05-06 15:51 | 43.68286 | 7.25242 | 593 ft | 118 kts | 232° |
| 2026-05-06 15:51 | 43.67736 | 7.24446 | 410 ft | 116 kts | 222° |
| 2026-05-06 15:51 | 43.67143 | 7.23658 | 262 ft | 119 kts | 224° |
| 2026-05-06 15:51 | 43.66556 | 7.22842 | 85 ft | 118 kts | 225° |
| 2026-05-06 15:52 | 43.66011 | 7.22091 | 29 ft | 99 kts | 224° |
| 2026-05-06 15:52 | 43.65606 | 7.21533 | 30 ft | 65 kts | 225° |
| 2026-05-06 15:52 | 43.65368 | 7.21206 | 30 ft | 32 kts | 225° |
| 2026-05-06 15:52 | 43.65237 | 7.21024 | 28 ft | 17 kts | 226° |
| 2026-05-06 15:53 | 43.65221 | 7.20921 | 28 ft | 10 kts | 302° |
| 2026-05-06 15:53 | 43.65282 | 7.20840 | 27 ft | 14 kts | 314° |
| 2026-05-06 15:53 | 43.65358 | 7.20740 | 27 ft | 14 kts | 329° |
| 2026-05-06 15:53 | 43.65461 | 7.20705 | 26 ft | 17 kts | 352° |
| 2026-05-06 15:54 | 43.65553 | 7.20686 | 27 ft | 8 kts | 351° |
| 2026-05-06 15:54 | 43.65621 | 7.20665 | 27 ft | 12 kts | 340° |
| 2026-05-06 15:54 | 43.65678 | 7.20604 | 27 ft | 10 kts | 314° |
| 2026-05-06 15:54 | 43.65711 | 7.20568 | 27 ft | 3 kts | 346° |
| 2026-05-06 15:55 | 43.65717 | 7.20573 | 27 ft | 0 kts | 21° |
| 2026-05-06 15:55 | 43.65734 | 7.20594 | 27 ft | 5 kts | 41° |
| 2026-05-06 15:55 | 43.65765 | 7.20598 | 27 ft | 4 kts | 335° |
| 2026-05-06 15:55 | 43.65786 | 7.20571 | 27 ft | 2 kts | 316° |
| 2026-05-06 15:56 | 43.65798 | 7.20555 | 27 ft | 1 kts | 315° |
| 2026-05-06 15:56 | 43.65803 | 7.20548 | 27 ft | 0 kts | 315° |
| 2026-05-06 15:56 | 43.65804 | 7.20546 | 27 ft | 0 kts | 315° |
| 2026-05-06 15:56 | 43.65805 | 7.20545 | 27 ft | 0 kts | 315° |